sensor_id;sensor_type;location;lat;lon;timestamp;temperature;humidity
40059;SHT31;25763;49.972;8.568;2023-04-16T00:01:30;9.39;82.92
40059;SHT31;25763;49.972;8.568;2023-04-16T00:03:55;9.40;82.88
40059;SHT31;25763;49.972;8.568;2023-04-16T00:06:21;9.41;82.91
40059;SHT31;25763;49.972;8.568;2023-04-16T00:08:47;9.43;82.94
40059;SHT31;25763;49.972;8.568;2023-04-16T00:11:12;9.41;82.83
40059;SHT31;25763;49.972;8.568;2023-04-16T00:13:37;9.41;82.85
40059;SHT31;25763;49.972;8.568;2023-04-16T00:16:03;9.40;82.89
40059;SHT31;25763;49.972;8.568;2023-04-16T00:18:28;9.40;82.87
40059;SHT31;25763;49.972;8.568;2023-04-16T00:20:54;9.41;82.78
40059;SHT31;25763;49.972;8.568;2023-04-16T00:23:20;9.41;82.73
40059;SHT31;25763;49.972;8.568;2023-04-16T00:25:46;9.41;82.73
40059;SHT31;25763;49.972;8.568;2023-04-16T00:28:11;9.40;82.80
40059;SHT31;25763;49.972;8.568;2023-04-16T00:30:36;9.43;82.75
40059;SHT31;25763;49.972;8.568;2023-04-16T00:33:02;9.41;82.79
40059;SHT31;25763;49.972;8.568;2023-04-16T00:35:28;9.40;82.79
40059;SHT31;25763;49.972;8.568;2023-04-16T00:37:54;9.39;82.78
40059;SHT31;25763;49.972;8.568;2023-04-16T00:40:19;9.39;82.74
40059;SHT31;25763;49.972;8.568;2023-04-16T00:42:45;9.37;82.68
40059;SHT31;25763;49.972;8.568;2023-04-16T00:45:10;9.40;82.69
40059;SHT31;25763;49.972;8.568;2023-04-16T00:47:37;9.40;82.66
40059;SHT31;25763;49.972;8.568;2023-04-16T00:50:02;9.43;82.59
40059;SHT31;25763;49.972;8.568;2023-04-16T00:52:33;9.40;82.61
40059;SHT31;25763;49.972;8.568;2023-04-16T00:54:58;9.40;82.56
40059;SHT31;25763;49.972;8.568;2023-04-16T00:57:24;9.43;82.58
40059;SHT31;25763;49.972;8.568;2023-04-16T00:59:51;9.43;82.56
40059;SHT31;25763;49.972;8.568;2023-04-16T01:02:17;9.47;82.57
40059;SHT31;25763;49.972;8.568;2023-04-16T01:04:42;9.44;82.47
40059;SHT31;25763;49.972;8.568;2023-04-16T01:07:08;9.43;82.53
40059;SHT31;25763;49.972;8.568;2023-04-16T01:09:33;9.44;82.47
40059;SHT31;25763;49.972;8.568;2023-04-16T01:11:58;9.40;82.52
40059;SHT31;25763;49.972;8.568;2023-04-16T01:14:24;9.46;82.52
40059;SHT31;25763;49.972;8.568;2023-04-16T01:16:49;9.48;82.42
40059;SHT31;25763;49.972;8.568;2023-04-16T01:19:14;9.41;82.46
40059;SHT31;25763;49.972;8.568;2023-04-16T01:21:40;9.41;82.55
40059;SHT31;25763;49.972;8.568;2023-04-16T01:24:05;9.41;82.58
40059;SHT31;25763;49.972;8.568;2023-04-16T01:26:31;9.44;82.57
40059;SHT31;25763;49.972;8.568;2023-04-16T01:28:56;9.41;82.46
40059;SHT31;25763;49.972;8.568;2023-04-16T01:31:22;9.46;82.55
40059;SHT31;25763;49.972;8.568;2023-04-16T01:33:47;9.47;82.47
40059;SHT31;25763;49.972;8.568;2023-04-16T01:36:12;9.41;82.53
40059;SHT31;25763;49.972;8.568;2023-04-16T01:38:38;9.43;82.50
40059;SHT31;25763;49.972;8.568;2023-04-16T01:41:03;9.43;82.50
40059;SHT31;25763;49.972;8.568;2023-04-16T01:43:29;9.46;82.47
40059;SHT31;25763;49.972;8.568;2023-04-16T01:46:11;9.43;82.49
40059;SHT31;25763;49.972;8.568;2023-04-16T01:48:36;9.44;82.53
40059;SHT31;25763;49.972;8.568;2023-04-16T01:51:02;9.44;82.54
40059;SHT31;25763;49.972;8.568;2023-04-16T01:53:29;9.48;82.37
40059;SHT31;25763;49.972;8.568;2023-04-16T01:55:54;9.50;82.37
40059;SHT31;25763;49.972;8.568;2023-04-16T01:58:19;9.51;82.28
40059;SHT31;25763;49.972;8.568;2023-04-16T02:00:45;9.50;82.20
40059;SHT31;25763;49.972;8.568;2023-04-16T02:03:10;9.48;82.26
40059;SHT31;25763;49.972;8.568;2023-04-16T02:05:36;9.47;82.26
40059;SHT31;25763;49.972;8.568;2023-04-16T02:08:01;9.44;82.19
40059;SHT31;25763;49.972;8.568;2023-04-16T02:10:26;9.44;82.39
40059;SHT31;25763;49.972;8.568;2023-04-16T02:12:51;9.46;82.38
40059;SHT31;25763;49.972;8.568;2023-04-16T02:15:17;9.43;82.26
40059;SHT31;25763;49.972;8.568;2023-04-16T02:17:42;9.41;82.40
40059;SHT31;25763;49.972;8.568;2023-04-16T02:20:08;9.44;82.37
40059;SHT31;25763;49.972;8.568;2023-04-16T02:22:34;9.37;82.50
40059;SHT31;25763;49.972;8.568;2023-04-16T02:25:00;9.40;82.54
40059;SHT31;25763;49.972;8.568;2023-04-16T02:27:25;9.39;82.54
40059;SHT31;25763;49.972;8.568;2023-04-16T02:29:51;9.37;82.47
40059;SHT31;25763;49.972;8.568;2023-04-16T02:32:16;9.44;82.44
40059;SHT31;25763;49.972;8.568;2023-04-16T02:34:42;9.47;82.31
40059;SHT31;25763;49.972;8.568;2023-04-16T02:37:07;9.52;82.25
40059;SHT31;25763;49.972;8.568;2023-04-16T02:39:33;9.48;82.20
40059;SHT31;25763;49.972;8.568;2023-04-16T02:41:58;9.52;82.13
40059;SHT31;25763;49.972;8.568;2023-04-16T02:44:24;9.48;82.11
40059;SHT31;25763;49.972;8.568;2023-04-16T02:46:50;9.51;82.14
40059;SHT31;25763;49.972;8.568;2023-04-16T02:49:15;9.44;82.22
40059;SHT31;25763;49.972;8.568;2023-04-16T02:51:40;9.43;82.28
40059;SHT31;25763;49.972;8.568;2023-04-16T02:54:06;9.47;82.21
40059;SHT31;25763;49.972;8.568;2023-04-16T02:56:31;9.44;82.21
40059;SHT31;25763;49.972;8.568;2023-04-16T02:58:56;9.41;82.32
40059;SHT31;25763;49.972;8.568;2023-04-16T03:01:22;9.47;82.18
40059;SHT31;25763;49.972;8.568;2023-04-16T03:03:47;9.46;82.33
40059;SHT31;25763;49.972;8.568;2023-04-16T03:06:13;9.47;82.26
40059;SHT31;25763;49.972;8.568;2023-04-16T03:08:38;9.48;82.13
40059;SHT31;25763;49.972;8.568;2023-04-16T03:11:03;9.47;82.11
40059;SHT31;25763;49.972;8.568;2023-04-16T03:13:29;9.47;82.16
40059;SHT31;25763;49.972;8.568;2023-04-16T03:15:54;9.46;82.27
40059;SHT31;25763;49.972;8.568;2023-04-16T03:18:20;9.41;82.32
40059;SHT31;25763;49.972;8.568;2023-04-16T03:20:45;9.44;82.39
40059;SHT31;25763;49.972;8.568;2023-04-16T03:23:15;9.34;82.40
40059;SHT31;25763;49.972;8.568;2023-04-16T03:25:40;9.44;82.31
40059;SHT31;25763;49.972;8.568;2023-04-16T03:28:07;9.43;82.41
40059;SHT31;25763;49.972;8.568;2023-04-16T03:30:33;9.44;82.41
40059;SHT31;25763;49.972;8.568;2023-04-16T03:32:58;9.50;82.26
40059;SHT31;25763;49.972;8.568;2023-04-16T03:35:23;9.47;82.23
40059;SHT31;25763;49.972;8.568;2023-04-16T03:37:49;9.41;82.24
40059;SHT31;25763;49.972;8.568;2023-04-16T03:40:14;9.48;82.25
40059;SHT31;25763;49.972;8.568;2023-04-16T03:42:39;9.47;82.18
40059;SHT31;25763;49.972;8.568;2023-04-16T03:45:05;9.50;82.15
40059;SHT31;25763;49.972;8.568;2023-04-16T03:47:31;9.48;82.23
40059;SHT31;25763;49.972;8.568;2023-04-16T03:49:56;9.52;82.17
40059;SHT31;25763;49.972;8.568;2023-04-16T03:52:21;9.51;82.16
40059;SHT31;25763;49.972;8.568;2023-04-16T03:54:47;9.51;82.10
40059;SHT31;25763;49.972;8.568;2023-04-16T03:57:12;9.51;82.19
40059;SHT31;25763;49.972;8.568;2023-04-16T03:59:37;9.51;82.16
40059;SHT31;25763;49.972;8.568;2023-04-16T04:02:02;9.48;82.11
40059;SHT31;25763;49.972;8.568;2023-04-16T04:04:28;9.51;82.06
40059;SHT31;25763;49.972;8.568;2023-04-16T04:06:53;9.47;81.97
40059;SHT31;25763;49.972;8.568;2023-04-16T04:09:18;9.48;82.00
40059;SHT31;25763;49.972;8.568;2023-04-16T04:11:44;9.43;82.06
40059;SHT31;25763;49.972;8.568;2023-04-16T04:14:09;9.41;82.13
40059;SHT31;25763;49.972;8.568;2023-04-16T04:16:35;9.46;82.05
40059;SHT31;25763;49.972;8.568;2023-04-16T04:19:00;9.50;82.09
40059;SHT31;25763;49.972;8.568;2023-04-16T04:21:27;9.46;82.06
40059;SHT31;25763;49.972;8.568;2023-04-16T04:23:52;9.37;82.17
40059;SHT31;25763;49.972;8.568;2023-04-16T04:26:18;9.27;82.41
40059;SHT31;25763;49.972;8.568;2023-04-16T04:28:43;9.23;82.65
40059;SHT31;25763;49.972;8.568;2023-04-16T04:31:08;9.27;82.62
40059;SHT31;25763;49.972;8.568;2023-04-16T04:33:34;9.26;82.64
40059;SHT31;25763;49.972;8.568;2023-04-16T04:35:59;9.26;82.63
40059;SHT31;25763;49.972;8.568;2023-04-16T04:38:25;9.23;82.62
40059;SHT31;25763;49.972;8.568;2023-04-16T04:40:51;9.19;82.61
40059;SHT31;25763;49.972;8.568;2023-04-16T04:43:17;9.19;82.66
40059;SHT31;25763;49.972;8.568;2023-04-16T04:45:43;9.23;82.70
40059;SHT31;25763;49.972;8.568;2023-04-16T04:48:08;9.20;82.66
40059;SHT31;25763;49.972;8.568;2023-04-16T04:50:34;9.19;82.60
40059;SHT31;25763;49.972;8.568;2023-04-16T04:53:00;9.19;82.64
40059;SHT31;25763;49.972;8.568;2023-04-16T04:55:25;9.24;82.55
40059;SHT31;25763;49.972;8.568;2023-04-16T04:57:50;9.26;82.59
40059;SHT31;25763;49.972;8.568;2023-04-16T05:00:16;9.24;82.40
40059;SHT31;25763;49.972;8.568;2023-04-16T05:02:41;9.27;82.44
40059;SHT31;25763;49.972;8.568;2023-04-16T05:05:07;9.27;82.41
40059;SHT31;25763;49.972;8.568;2023-04-16T05:07:32;9.32;82.39
40059;SHT31;25763;49.972;8.568;2023-04-16T05:09:58;9.32;82.34
40059;SHT31;25763;49.972;8.568;2023-04-16T05:12:23;9.34;82.31
40059;SHT31;25763;49.972;8.568;2023-04-16T05:14:48;9.34;82.06
40059;SHT31;25763;49.972;8.568;2023-04-16T05:17:14;9.32;82.03
40059;SHT31;25763;49.972;8.568;2023-04-16T05:19:39;9.34;82.01
40059;SHT31;25763;49.972;8.568;2023-04-16T05:22:05;9.36;81.98
40059;SHT31;25763;49.972;8.568;2023-04-16T05:24:30;9.41;82.04
40059;SHT31;25763;49.972;8.568;2023-04-16T05:26:56;9.44;81.88
40059;SHT31;25763;49.972;8.568;2023-04-16T05:29:22;9.51;81.82
40059;SHT31;25763;49.972;8.568;2023-04-16T05:31:47;9.48;81.64
40059;SHT31;25763;49.972;8.568;2023-04-16T05:34:13;9.47;81.77
40059;SHT31;25763;49.972;8.568;2023-04-16T05:36:38;9.46;81.90
40059;SHT31;25763;49.972;8.568;2023-04-16T05:39:03;9.41;81.94
40059;SHT31;25763;49.972;8.568;2023-04-16T05:41:29;9.41;82.02
40059;SHT31;25763;49.972;8.568;2023-04-16T05:43:54;9.51;81.91
40059;SHT31;25763;49.972;8.568;2023-04-16T05:46:19;9.47;81.98
40059;SHT31;25763;49.972;8.568;2023-04-16T05:48:45;9.50;81.94
40059;SHT31;25763;49.972;8.568;2023-04-16T05:51:10;9.47;81.82
40059;SHT31;25763;49.972;8.568;2023-04-16T05:53:36;9.43;81.78
40059;SHT31;25763;49.972;8.568;2023-04-16T05:56:01;9.48;81.78
40059;SHT31;25763;49.972;8.568;2023-04-16T05:58:27;9.55;81.59
40059;SHT31;25763;49.972;8.568;2023-04-16T06:00:52;9.55;81.69
40059;SHT31;25763;49.972;8.568;2023-04-16T06:03:17;9.64;81.51
40059;SHT31;25763;49.972;8.568;2023-04-16T06:05:43;9.65;81.56
40059;SHT31;25763;49.972;8.568;2023-04-16T06:08:09;9.61;81.60
40059;SHT31;25763;49.972;8.568;2023-04-16T06:10:34;9.58;81.45
40059;SHT31;25763;49.972;8.568;2023-04-16T06:12:59;9.62;81.49
40059;SHT31;25763;49.972;8.568;2023-04-16T06:15:25;9.62;81.51
40059;SHT31;25763;49.972;8.568;2023-04-16T06:17:50;9.64;81.49
40059;SHT31;25763;49.972;8.568;2023-04-16T06:20:15;9.68;81.43
40059;SHT31;25763;49.972;8.568;2023-04-16T06:22:41;9.69;81.49
40059;SHT31;25763;49.972;8.568;2023-04-16T06:25:06;9.75;81.28
40059;SHT31;25763;49.972;8.568;2023-04-16T06:27:32;9.69;81.23
40059;SHT31;25763;49.972;8.568;2023-04-16T06:29:57;9.72;81.36
40059;SHT31;25763;49.972;8.568;2023-04-16T06:32:23;9.77;81.34
40059;SHT31;25763;49.972;8.568;2023-04-16T06:34:49;9.75;80.95
40059;SHT31;25763;49.972;8.568;2023-04-16T06:37:14;9.82;81.07
40059;SHT31;25763;49.972;8.568;2023-04-16T06:39:40;9.92;81.10
40059;SHT31;25763;49.972;8.568;2023-04-16T06:42:05;9.88;80.94
40059;SHT31;25763;49.972;8.568;2023-04-16T06:44:31;9.98;80.87
40059;SHT31;25763;49.972;8.568;2023-04-16T06:46:56;10.08;80.96
40059;SHT31;25763;49.972;8.568;2023-04-16T06:49:22;10.14;80.90
40059;SHT31;25763;49.972;8.568;2023-04-16T06:51:47;10.14;80.95
40059;SHT31;25763;49.972;8.568;2023-04-16T06:54:12;10.09;81.11
40059;SHT31;25763;49.972;8.568;2023-04-16T06:56:38;10.18;81.39
40059;SHT31;25763;49.972;8.568;2023-04-16T06:59:03;10.24;81.49
40059;SHT31;25763;49.972;8.568;2023-04-16T07:01:29;10.20;81.62
40059;SHT31;25763;49.972;8.568;2023-04-16T07:03:56;10.20;81.84
40059;SHT31;25763;49.972;8.568;2023-04-16T07:06:21;10.14;82.29
40059;SHT31;25763;49.972;8.568;2023-04-16T07:08:47;10.02;82.73
40059;SHT31;25763;49.972;8.568;2023-04-16T07:11:12;9.92;83.02
40059;SHT31;25763;49.972;8.568;2023-04-16T07:13:38;9.92;83.44
40059;SHT31;25763;49.972;8.568;2023-04-16T07:16:03;9.86;83.55
40059;SHT31;25763;49.972;8.568;2023-04-16T07:18:28;9.85;83.90
40059;SHT31;25763;49.972;8.568;2023-04-16T07:20:54;9.83;84.07
40059;SHT31;25763;49.972;8.568;2023-04-16T07:23:20;9.74;84.44
40059;SHT31;25763;49.972;8.568;2023-04-16T07:25:45;9.61;84.60
40059;SHT31;25763;49.972;8.568;2023-04-16T07:28:10;9.78;84.60
40059;SHT31;25763;49.972;8.568;2023-04-16T07:30:36;9.72;84.84
40059;SHT31;25763;49.972;8.568;2023-04-16T07:33:02;9.75;85.09
40059;SHT31;25763;49.972;8.568;2023-04-16T07:35:28;9.81;85.00
40059;SHT31;25763;49.972;8.568;2023-04-16T07:37:54;9.72;84.84
40059;SHT31;25763;49.972;8.568;2023-04-16T07:40:19;9.75;84.65
40059;SHT31;25763;49.972;8.568;2023-04-16T07:42:45;9.74;84.83
40059;SHT31;25763;49.972;8.568;2023-04-16T07:45:10;9.86;84.70
40059;SHT31;25763;49.972;8.568;2023-04-16T07:47:36;9.86;84.69
40059;SHT31;25763;49.972;8.568;2023-04-16T07:50:01;9.91;84.78
40059;SHT31;25763;49.972;8.568;2023-04-16T07:52:26;9.86;84.85
40059;SHT31;25763;49.972;8.568;2023-04-16T07:54:52;9.93;84.75
40059;SHT31;25763;49.972;8.568;2023-04-16T07:57:17;9.98;84.57
40059;SHT31;25763;49.972;8.568;2023-04-16T07:59:42;9.91;84.67
40059;SHT31;25763;49.972;8.568;2023-04-16T08:02:11;9.92;84.60
40059;SHT31;25763;49.972;8.568;2023-04-16T08:04:38;9.91;84.77
40059;SHT31;25763;49.972;8.568;2023-04-16T08:07:03;9.86;85.00
40059;SHT31;25763;49.972;8.568;2023-04-16T08:09:29;9.82;84.62
40059;SHT31;25763;49.972;8.568;2023-04-16T08:11:54;9.61;84.81
40059;SHT31;25763;49.972;8.568;2023-04-16T08:14:20;9.62;85.19
40059;SHT31;25763;49.972;8.568;2023-04-16T08:16:45;9.67;85.32
40059;SHT31;25763;49.972;8.568;2023-04-16T08:19:11;9.68;85.44
40059;SHT31;25763;49.972;8.568;2023-04-16T08:21:36;9.62;85.51
40059;SHT31;25763;49.972;8.568;2023-04-16T08:24:02;9.59;85.63
40059;SHT31;25763;49.972;8.568;2023-04-16T08:26:27;9.69;85.72
40059;SHT31;25763;49.972;8.568;2023-04-16T08:28:52;9.77;85.56
40059;SHT31;25763;49.972;8.568;2023-04-16T08:31:18;9.93;85.29
40059;SHT31;25763;49.972;8.568;2023-04-16T08:33:43;9.89;85.06
40059;SHT31;25763;49.972;8.568;2023-04-16T08:36:08;9.95;85.02
40059;SHT31;25763;49.972;8.568;2023-04-16T08:38:34;9.93;84.73
40059;SHT31;25763;49.972;8.568;2023-04-16T08:41:02;9.98;84.71
40059;SHT31;25763;49.972;8.568;2023-04-16T08:43:32;10.03;84.62
40059;SHT31;25763;49.972;8.568;2023-04-16T08:45:59;10.03;84.46
40059;SHT31;25763;49.972;8.568;2023-04-16T08:48:28;10.06;84.33
40059;SHT31;25763;49.972;8.568;2023-04-16T08:50:59;10.05;84.24
40059;SHT31;25763;49.972;8.568;2023-04-16T08:53:31;10.06;84.11
40059;SHT31;25763;49.972;8.568;2023-04-16T08:56:02;10.08;83.89
40059;SHT31;25763;49.972;8.568;2023-04-16T08:58:30;10.10;83.93
40059;SHT31;25763;49.972;8.568;2023-04-16T09:00:58;10.09;83.92
40059;SHT31;25763;49.972;8.568;2023-04-16T09:03:23;10.13;83.77
40059;SHT31;25763;49.972;8.568;2023-04-16T09:05:49;10.18;83.88
40059;SHT31;25763;49.972;8.568;2023-04-16T09:08:16;10.20;83.64
40059;SHT31;25763;49.972;8.568;2023-04-16T09:10:42;10.28;83.67
40059;SHT31;25763;49.972;8.568;2023-04-16T09:13:09;10.33;83.47
40059;SHT31;25763;49.972;8.568;2023-04-16T09:15:36;10.40;83.33
40059;SHT31;25763;49.972;8.568;2023-04-16T09:18:02;10.23;83.05
40059;SHT31;25763;49.972;8.568;2023-04-16T09:20:27;10.34;83.01
40059;SHT31;25763;49.972;8.568;2023-04-16T09:22:52;10.30;82.72
40059;SHT31;25763;49.972;8.568;2023-04-16T09:25:19;10.35;82.81
40059;SHT31;25763;49.972;8.568;2023-04-16T09:27:48;10.31;82.80
40059;SHT31;25763;49.972;8.568;2023-04-16T09:30:23;10.30;82.77
40059;SHT31;25763;49.972;8.568;2023-04-16T09:32:51;10.35;82.72
40059;SHT31;25763;49.972;8.568;2023-04-16T09:35:18;10.42;82.65
40059;SHT31;25763;49.972;8.568;2023-04-16T09:37:53;10.41;82.35
40059;SHT31;25763;49.972;8.568;2023-04-16T09:40:23;10.48;82.37
40059;SHT31;25763;49.972;8.568;2023-04-16T09:42:51;10.40;82.37
40059;SHT31;25763;49.972;8.568;2023-04-16T09:45:16;10.46;82.29
40059;SHT31;25763;49.972;8.568;2023-04-16T09:47:43;10.46;82.45
40059;SHT31;25763;49.972;8.568;2023-04-16T09:50:13;10.42;82.28
40059;SHT31;25763;49.972;8.568;2023-04-16T09:52:39;10.46;82.18
40059;SHT31;25763;49.972;8.568;2023-04-16T09:55:07;10.42;82.31
40059;SHT31;25763;49.972;8.568;2023-04-16T09:57:36;10.48;82.29
40059;SHT31;25763;49.972;8.568;2023-04-16T10:00:04;10.54;81.97
40059;SHT31;25763;49.972;8.568;2023-04-16T10:02:31;10.54;82.03
40059;SHT31;25763;49.972;8.568;2023-04-16T10:05:00;10.49;81.65
40059;SHT31;25763;49.972;8.568;2023-04-16T10:07:28;10.58;81.78
40059;SHT31;25763;49.972;8.568;2023-04-16T10:09:54;10.57;81.59
40059;SHT31;25763;49.972;8.568;2023-04-16T10:12:20;10.65;81.60
40059;SHT31;25763;49.972;8.568;2023-04-16T10:14:45;10.73;81.47
40059;SHT31;25763;49.972;8.568;2023-04-16T10:17:11;10.72;81.28
40059;SHT31;25763;49.972;8.568;2023-04-16T10:19:37;10.72;80.78
40059;SHT31;25763;49.972;8.568;2023-04-16T10:22:03;10.77;80.93
40059;SHT31;25763;49.972;8.568;2023-04-16T10:24:29;10.79;81.14
40059;SHT31;25763;49.972;8.568;2023-04-16T10:26:56;10.82;81.16
40059;SHT31;25763;49.972;8.568;2023-04-16T10:29:22;10.89;81.22
40059;SHT31;25763;49.972;8.568;2023-04-16T10:31:48;10.90;81.21
40059;SHT31;25763;49.972;8.568;2023-04-16T10:34:14;10.86;80.85
40059;SHT31;25763;49.972;8.568;2023-04-16T10:36:41;10.85;80.68
40059;SHT31;25763;49.972;8.568;2023-04-16T10:39:11;10.92;80.78
40059;SHT31;25763;49.972;8.568;2023-04-16T10:41:37;10.87;80.69
40059;SHT31;25763;49.972;8.568;2023-04-16T10:44:07;10.92;80.57
40059;SHT31;25763;49.972;8.568;2023-04-16T10:46:39;10.90;80.46
40059;SHT31;25763;49.972;8.568;2023-04-16T10:49:17;10.90;80.58
40059;SHT31;25763;49.972;8.568;2023-04-16T10:51:57;10.94;80.74
40059;SHT31;25763;49.972;8.568;2023-04-16T10:54:27;10.93;80.33
40059;SHT31;25763;49.972;8.568;2023-04-16T10:56:56;11.00;80.43
40059;SHT31;25763;49.972;8.568;2023-04-16T10:59:22;11.06;80.48
40059;SHT31;25763;49.972;8.568;2023-04-16T11:01:54;11.06;80.49
40059;SHT31;25763;49.972;8.568;2023-04-16T11:09:57;11.06;80.58
40059;SHT31;25763;49.972;8.568;2023-04-16T11:12:48;11.03;80.53
40059;SHT31;25763;49.972;8.568;2023-04-16T11:15:15;11.04;80.46
40059;SHT31;25763;49.972;8.568;2023-04-16T11:17:45;11.06;80.74
40059;SHT31;25763;49.972;8.568;2023-04-16T11:20:24;11.07;80.90
40059;SHT31;25763;49.972;8.568;2023-04-16T11:22:51;11.10;80.72
40059;SHT31;25763;49.972;8.568;2023-04-16T11:25:28;11.12;80.99
40059;SHT31;25763;49.972;8.568;2023-04-16T11:27:54;11.15;80.97
40059;SHT31;25763;49.972;8.568;2023-04-16T11:30:30;11.18;81.06
40059;SHT31;25763;49.972;8.568;2023-04-16T11:32:57;11.21;81.19
40059;SHT31;25763;49.972;8.568;2023-04-16T11:35:22;11.21;81.06
40059;SHT31;25763;49.972;8.568;2023-04-16T11:37:48;11.25;81.20
40059;SHT31;25763;49.972;8.568;2023-04-16T11:40:13;11.35;81.29
40059;SHT31;25763;49.972;8.568;2023-04-16T11:42:40;11.44;81.06
40059;SHT31;25763;49.972;8.568;2023-04-16T11:45:07;11.51;80.97
40059;SHT31;25763;49.972;8.568;2023-04-16T11:47:47;11.53;80.98
40059;SHT31;25763;49.972;8.568;2023-04-16T11:50:23;11.58;81.28
40059;SHT31;25763;49.972;8.568;2023-04-16T11:52:50;11.70;81.11
40059;SHT31;25763;49.972;8.568;2023-04-16T11:55:16;11.77;81.17
40059;SHT31;25763;49.972;8.568;2023-04-16T11:57:42;11.86;81.30
40059;SHT31;25763;49.972;8.568;2023-04-16T12:00:08;11.83;81.17
40059;SHT31;25763;49.972;8.568;2023-04-16T12:02:41;11.80;80.87
40059;SHT31;25763;49.972;8.568;2023-04-16T12:07:53;12.24;81.32
40059;SHT31;25763;49.972;8.568;2023-04-16T12:10:19;12.60;80.72
40059;SHT31;25763;49.972;8.568;2023-04-16T12:12:45;12.85;80.52
40059;SHT31;25763;49.972;8.568;2023-04-16T12:15:10;12.97;79.49
40059;SHT31;25763;49.972;8.568;2023-04-16T12:17:36;13.20;79.74
40059;SHT31;25763;49.972;8.568;2023-04-16T12:20:07;13.33;79.04
40059;SHT31;25763;49.972;8.568;2023-04-16T12:22:35;13.36;78.71
40059;SHT31;25763;49.972;8.568;2023-04-16T12:25:01;13.46;78.54
40059;SHT31;25763;49.972;8.568;2023-04-16T12:27:53;13.46;78.52
40059;SHT31;25763;49.972;8.568;2023-04-16T12:30:23;13.37;78.33
40059;SHT31;25763;49.972;8.568;2023-04-16T12:32:52;13.36;78.16
40059;SHT31;25763;49.972;8.568;2023-04-16T12:35:33;13.39;77.85
40059;SHT31;25763;49.972;8.568;2023-04-16T12:37:59;13.32;77.84
40059;SHT31;25763;49.972;8.568;2023-04-16T12:40:25;13.32;77.86
40059;SHT31;25763;49.972;8.568;2023-04-16T12:42:50;13.30;77.86
40059;SHT31;25763;49.972;8.568;2023-04-16T12:45:15;13.18;77.83
40059;SHT31;25763;49.972;8.568;2023-04-16T12:47:41;13.08;77.93
40059;SHT31;25763;49.972;8.568;2023-04-16T12:50:06;13.02;78.26
40059;SHT31;25763;49.972;8.568;2023-04-16T12:52:33;12.99;78.14
40059;SHT31;25763;49.972;8.568;2023-04-16T12:54:58;12.88;78.44
40059;SHT31;25763;49.972;8.568;2023-04-16T12:57:25;12.87;78.99
40059;SHT31;25763;49.972;8.568;2023-04-16T12:59:54;12.91;79.03
40059;SHT31;25763;49.972;8.568;2023-04-16T13:02:20;12.84;79.13
40059;SHT31;25763;49.972;8.568;2023-04-16T13:04:45;12.61;79.26
40059;SHT31;25763;49.972;8.568;2023-04-16T13:07:11;12.42;80.10
40059;SHT31;25763;49.972;8.568;2023-04-16T13:09:36;12.36;80.24
40059;SHT31;25763;49.972;8.568;2023-04-16T13:12:01;12.43;80.61
40059;SHT31;25763;49.972;8.568;2023-04-16T13:14:27;12.22;81.06
40059;SHT31;25763;49.972;8.568;2023-04-16T13:16:52;12.04;81.92
40059;SHT31;25763;49.972;8.568;2023-04-16T13:19:17;11.83;82.01
40059;SHT31;25763;49.972;8.568;2023-04-16T13:21:43;11.71;82.40
40059;SHT31;25763;49.972;8.568;2023-04-16T13:24:08;11.66;82.52
40059;SHT31;25763;49.972;8.568;2023-04-16T13:26:34;11.73;82.90
40059;SHT31;25763;49.972;8.568;2023-04-16T13:29:00;11.90;82.69
40059;SHT31;25763;49.972;8.568;2023-04-16T13:31:25;11.93;82.08
40059;SHT31;25763;49.972;8.568;2023-04-16T13:33:51;12.06;82.12
40059;SHT31;25763;49.972;8.568;2023-04-16T13:36:16;12.25;81.01
40059;SHT31;25763;49.972;8.568;2023-04-16T13:38:42;12.42;80.86
40059;SHT31;25763;49.972;8.568;2023-04-16T13:41:07;12.75;80.37
40059;SHT31;25763;49.972;8.568;2023-04-16T13:43:33;13.02;79.65
40059;SHT31;25763;49.972;8.568;2023-04-16T13:45:58;13.24;79.31
40059;SHT31;25763;49.972;8.568;2023-04-16T13:48:25;13.50;79.24
40059;SHT31;25763;49.972;8.568;2023-04-16T13:50:50;13.62;78.38
40059;SHT31;25763;49.972;8.568;2023-04-16T13:53:16;13.83;77.33
40059;SHT31;25763;49.972;8.568;2023-04-16T13:55:42;14.02;76.93
40059;SHT31;25763;49.972;8.568;2023-04-16T13:58:08;14.14;76.29
40059;SHT31;25763;49.972;8.568;2023-04-16T14:00:33;14.10;75.29
40059;SHT31;25763;49.972;8.568;2023-04-16T14:02:59;14.08;75.61
40059;SHT31;25763;49.972;8.568;2023-04-16T14:05:24;14.10;75.62
40059;SHT31;25763;49.972;8.568;2023-04-16T14:07:50;14.03;75.48
40059;SHT31;25763;49.972;8.568;2023-04-16T14:10:16;13.48;75.56
40059;SHT31;25763;49.972;8.568;2023-04-16T14:12:42;13.59;75.97
40059;SHT31;25763;49.972;8.568;2023-04-16T14:15:08;13.40;76.20
40059;SHT31;25763;49.972;8.568;2023-04-16T14:17:34;13.33;76.68
40059;SHT31;25763;49.972;8.568;2023-04-16T14:20:02;13.51;76.83
40059;SHT31;25763;49.972;8.568;2023-04-16T14:22:28;13.47;75.87
40059;SHT31;25763;49.972;8.568;2023-04-16T14:24:54;13.46;75.78
40059;SHT31;25763;49.972;8.568;2023-04-16T14:27:19;13.36;76.33
40059;SHT31;25763;49.972;8.568;2023-04-16T14:29:44;13.37;76.23
40059;SHT31;25763;49.972;8.568;2023-04-16T14:32:11;13.29;75.98
40059;SHT31;25763;49.972;8.568;2023-04-16T14:34:36;13.27;76.20
40059;SHT31;25763;49.972;8.568;2023-04-16T14:37:01;13.23;76.33
40059;SHT31;25763;49.972;8.568;2023-04-16T14:39:28;12.94;76.89
40059;SHT31;25763;49.972;8.568;2023-04-16T14:41:54;12.73;77.06
40059;SHT31;25763;49.972;8.568;2023-04-16T14:44:19;12.77;77.51
40059;SHT31;25763;49.972;8.568;2023-04-16T14:46:45;12.81;77.84
40059;SHT31;25763;49.972;8.568;2023-04-16T14:49:11;12.80;78.20
40059;SHT31;25763;49.972;8.568;2023-04-16T14:51:36;12.81;78.24
40059;SHT31;25763;49.972;8.568;2023-04-16T14:54:01;12.89;78.12
40059;SHT31;25763;49.972;8.568;2023-04-16T14:56:27;12.94;78.08
40059;SHT31;25763;49.972;8.568;2023-04-16T14:58:52;12.99;78.15
40059;SHT31;25763;49.972;8.568;2023-04-16T15:01:17;13.04;77.83
40059;SHT31;25763;49.972;8.568;2023-04-16T15:03:43;13.02;77.58
40059;SHT31;25763;49.972;8.568;2023-04-16T15:06:08;13.02;77.72
40059;SHT31;25763;49.972;8.568;2023-04-16T15:08:33;12.98;77.87
40059;SHT31;25763;49.972;8.568;2023-04-16T15:10:59;12.85;78.07
40059;SHT31;25763;49.972;8.568;2023-04-16T15:13:25;12.88;78.32
40059;SHT31;25763;49.972;8.568;2023-04-16T15:15:58;12.88;78.31
40059;SHT31;25763;49.972;8.568;2023-04-16T15:18:24;12.82;78.56
40059;SHT31;25763;49.972;8.568;2023-04-16T15:20:49;12.71;78.47
40059;SHT31;25763;49.972;8.568;2023-04-16T15:23:15;12.85;78.63
40059;SHT31;25763;49.972;8.568;2023-04-16T15:25:40;12.97;78.06
40059;SHT31;25763;49.972;8.568;2023-04-16T15:28:06;13.06;78.18
40059;SHT31;25763;49.972;8.568;2023-04-16T15:30:31;13.06;78.49
40059;SHT31;25763;49.972;8.568;2023-04-16T15:32:56;13.05;78.37
40059;SHT31;25763;49.972;8.568;2023-04-16T15:35:22;12.91;77.70
40059;SHT31;25763;49.972;8.568;2023-04-16T15:37:47;12.99;77.14
40059;SHT31;25763;49.972;8.568;2023-04-16T15:40:13;12.89;77.87
40059;SHT31;25763;49.972;8.568;2023-04-16T15:42:41;13.02;78.23